sensor_id;sensor_type;location;lat;lon;timestamp;P1;durP1;ratioP1;P2;durP2;ratioP2
28304;SDS011;15569;42.652;23.040;2022-11-15T00:01:37;46.42;;;18.13;;
28304;SDS011;15569;42.652;23.040;2022-11-15T00:04:03;33.13;;;16.08;;
28304;SDS011;15569;42.652;23.040;2022-11-15T00:06:30;38.03;;;15.73;;
28304;SDS011;15569;42.652;23.040;2022-11-15T00:08:57;40.85;;;17.15;;
28304;SDS011;15569;42.652;23.040;2022-11-15T00:11:23;42.60;;;15.25;;
28304;SDS011;15569;42.652;23.040;2022-11-15T00:13:49;39.80;;;17.35;;
28304;SDS011;15569;42.652;23.040;2022-11-15T00:16:14;44.08;;;18.35;;
28304;SDS011;15569;42.652;23.040;2022-11-15T00:18:39;44.30;;;18.80;;
28304;SDS011;15569;42.652;23.040;2022-11-15T00:21:06;44.47;;;17.65;;
28304;SDS011;15569;42.652;23.040;2022-11-15T00:23:34;46.65;;;19.75;;
28304;SDS011;15569;42.652;23.040;2022-11-15T00:26:00;46.08;;;18.65;;
28304;SDS011;15569;42.652;23.040;2022-11-15T00:28:26;39.67;;;17.40;;
28304;SDS011;15569;42.652;23.040;2022-11-15T00:30:51;44.90;;;18.05;;
28304;SDS011;15569;42.652;23.040;2022-11-15T00:33:17;43.33;;;18.00;;
28304;SDS011;15569;42.652;23.040;2022-11-15T00:35:43;56.30;;;16.77;;
28304;SDS011;15569;42.652;23.040;2022-11-15T00:38:08;46.17;;;20.13;;
28304;SDS011;15569;42.652;23.040;2022-11-15T00:40:33;61.30;;;22.38;;
28304;SDS011;15569;42.652;23.040;2022-11-15T00:42:59;67.20;;;24.15;;
28304;SDS011;15569;42.652;23.040;2022-11-15T00:45:25;61.55;;;24.27;;
28304;SDS011;15569;42.652;23.040;2022-11-15T00:47:51;64.35;;;20.52;;
28304;SDS011;15569;42.652;23.040;2022-11-15T00:50:17;53.70;;;18.77;;
28304;SDS011;15569;42.652;23.040;2022-11-15T00:52:42;45.42;;;19.02;;
28304;SDS011;15569;42.652;23.040;2022-11-15T00:55:18;48.45;;;20.33;;
28304;SDS011;15569;42.652;23.040;2022-11-15T00:57:44;59.63;;;22.75;;
28304;SDS011;15569;42.652;23.040;2022-11-15T01:00:10;54.85;;;23.17;;
28304;SDS011;15569;42.652;23.040;2022-11-15T01:02:37;55.33;;;23.52;;
28304;SDS011;15569;42.652;23.040;2022-11-15T01:05:02;53.38;;;21.00;;
28304;SDS011;15569;42.652;23.040;2022-11-15T01:07:28;50.45;;;19.90;;
28304;SDS011;15569;42.652;23.040;2022-11-15T01:09:53;49.65;;;19.00;;
28304;SDS011;15569;42.652;23.040;2022-11-15T01:12:19;50.55;;;19.42;;
28304;SDS011;15569;42.652;23.040;2022-11-15T01:14:44;51.17;;;21.63;;
28304;SDS011;15569;42.652;23.040;2022-11-15T01:17:09;48.40;;;22.27;;
28304;SDS011;15569;42.652;23.040;2022-11-15T01:19:35;50.85;;;20.77;;
28304;SDS011;15569;42.652;23.040;2022-11-15T01:22:00;53.58;;;21.17;;
28304;SDS011;15569;42.652;23.040;2022-11-15T01:24:26;49.72;;;20.52;;
28304;SDS011;15569;42.652;23.040;2022-11-15T01:26:51;48.22;;;21.67;;
28304;SDS011;15569;42.652;23.040;2022-11-15T01:29:17;52.22;;;23.40;;
28304;SDS011;15569;42.652;23.040;2022-11-15T01:31:42;54.22;;;22.58;;
28304;SDS011;15569;42.652;23.040;2022-11-15T01:34:08;57.30;;;23.00;;
28304;SDS011;15569;42.652;23.040;2022-11-15T01:36:33;47.83;;;20.42;;
28304;SDS011;15569;42.652;23.040;2022-11-15T01:38:58;49.85;;;21.42;;
28304;SDS011;15569;42.652;23.040;2022-11-15T01:41:25;51.38;;;20.48;;
28304;SDS011;15569;42.652;23.040;2022-11-15T01:43:53;47.47;;;21.17;;
28304;SDS011;15569;42.652;23.040;2022-11-15T01:48:46;48.95;;;21.30;;
28304;SDS011;15569;42.652;23.040;2022-11-15T01:51:14;52.50;;;23.42;;
28304;SDS011;15569;42.652;23.040;2022-11-15T01:53:42;50.35;;;20.83;;
28304;SDS011;15569;42.652;23.040;2022-11-15T01:56:11;44.53;;;19.10;;
28304;SDS011;15569;42.652;23.040;2022-11-15T01:58:40;44.63;;;18.88;;
28304;SDS011;15569;42.652;23.040;2022-11-15T02:01:06;47.20;;;20.00;;
28304;SDS011;15569;42.652;23.040;2022-11-15T02:03:42;40.05;;;18.88;;
28304;SDS011;15569;42.652;23.040;2022-11-15T02:06:09;42.60;;;18.92;;
28304;SDS011;15569;42.652;23.040;2022-11-15T02:08:35;47.63;;;19.75;;
28304;SDS011;15569;42.652;23.040;2022-11-15T02:52:03;64.72;;;25.90;;
28304;SDS011;15569;42.652;23.040;2022-11-15T02:54:30;64.22;;;25.55;;
28304;SDS011;15569;42.652;23.040;2022-11-15T02:57:16;72.18;;;27.30;;
28304;SDS011;15569;42.652;23.040;2022-11-15T03:04:55;64.07;;;26.25;;
28304;SDS011;15569;42.652;23.040;2022-11-15T03:07:44;62.35;;;26.88;;
28304;SDS011;15569;42.652;23.040;2022-11-15T03:15:41;62.85;;;27.48;;
28304;SDS011;15569;42.652;23.040;2022-11-15T03:18:37;63.47;;;26.02;;
28304;SDS011;15569;42.652;23.040;2022-11-15T03:21:07;62.17;;;24.17;;
28304;SDS011;15569;42.652;23.040;2022-11-15T03:23:35;66.35;;;25.30;;
28304;SDS011;15569;42.652;23.040;2022-11-15T03:26:03;54.90;;;23.05;;
28304;SDS011;15569;42.652;23.040;2022-11-15T03:28:39;43.72;;;21.92;;
28304;SDS011;15569;42.652;23.040;2022-11-15T03:31:09;56.40;;;23.67;;
28304;SDS011;15569;42.652;23.040;2022-11-15T03:33:55;57.33;;;23.90;;
28304;SDS011;15569;42.652;23.040;2022-11-15T03:36:23;58.90;;;24.92;;
28304;SDS011;15569;42.652;23.040;2022-11-15T03:38:52;59.83;;;25.95;;
28304;SDS011;15569;42.652;23.040;2022-11-15T03:41:24;58.20;;;25.05;;
28304;SDS011;15569;42.652;23.040;2022-11-15T03:43:57;51.33;;;22.35;;
28304;SDS011;15569;42.652;23.040;2022-11-15T03:46:34;50.63;;;23.15;;
28304;SDS011;15569;42.652;23.040;2022-11-15T03:49:06;60.47;;;23.50;;
28304;SDS011;15569;42.652;23.040;2022-11-15T03:51:35;54.28;;;21.80;;
28304;SDS011;15569;42.652;23.040;2022-11-15T03:54:02;55.30;;;24.10;;
28304;SDS011;15569;42.652;23.040;2022-11-15T03:56:29;53.00;;;23.17;;
28304;SDS011;15569;42.652;23.040;2022-11-15T03:58:54;51.55;;;21.42;;
28304;SDS011;15569;42.652;23.040;2022-11-15T04:01:19;55.22;;;22.58;;
28304;SDS011;15569;42.652;23.040;2022-11-15T04:03:45;50.15;;;22.25;;
28304;SDS011;15569;42.652;23.040;2022-11-15T04:06:10;57.50;;;22.65;;
28304;SDS011;15569;42.652;23.040;2022-11-15T04:08:36;48.40;;;20.63;;
28304;SDS011;15569;42.652;23.040;2022-11-15T04:11:01;67.85;;;21.63;;
28304;SDS011;15569;42.652;23.040;2022-11-15T04:13:26;57.08;;;24.25;;
28304;SDS011;15569;42.652;23.040;2022-11-15T04:15:52;50.35;;;22.80;;
28304;SDS011;15569;42.652;23.040;2022-11-15T04:18:17;51.15;;;23.00;;
28304;SDS011;15569;42.652;23.040;2022-11-15T04:20:42;54.55;;;19.75;;
28304;SDS011;15569;42.652;23.040;2022-11-15T04:23:26;51.25;;;20.63;;
28304;SDS011;15569;42.652;23.040;2022-11-15T04:26:17;50.17;;;20.58;;
28304;SDS011;15569;42.652;23.040;2022-11-15T04:28:44;51.80;;;19.92;;
28304;SDS011;15569;42.652;23.040;2022-11-15T04:31:28;51.25;;;19.73;;
28304;SDS011;15569;42.652;23.040;2022-11-15T04:33:54;58.67;;;20.77;;
28304;SDS011;15569;42.652;23.040;2022-11-15T04:36:20;46.75;;;20.23;;
28304;SDS011;15569;42.652;23.040;2022-11-15T04:39:04;47.13;;;21.10;;
28304;SDS011;15569;42.652;23.040;2022-11-15T04:41:29;51.00;;;21.50;;
28304;SDS011;15569;42.652;23.040;2022-11-15T04:43:55;67.00;;;21.58;;
28304;SDS011;15569;42.652;23.040;2022-11-15T04:46:21;57.10;;;21.35;;
28304;SDS011;15569;42.652;23.040;2022-11-15T04:48:48;61.72;;;19.15;;
28304;SDS011;15569;42.652;23.040;2022-11-15T04:51:14;57.22;;;19.65;;
28304;SDS011;15569;42.652;23.040;2022-11-15T04:56:14;45.50;;;17.63;;
28304;SDS011;15569;42.652;23.040;2022-11-15T04:58:40;51.85;;;18.15;;
28304;SDS011;15569;42.652;23.040;2022-11-15T05:01:09;62.67;;;18.02;;
28304;SDS011;15569;42.652;23.040;2022-11-15T05:03:35;50.58;;;17.83;;
28304;SDS011;15569;42.652;23.040;2022-11-15T05:06:19;49.75;;;19.33;;
28304;SDS011;15569;42.652;23.040;2022-11-15T05:08:45;59.60;;;21.25;;
28304;SDS011;15569;42.652;23.040;2022-11-15T05:11:10;52.72;;;18.13;;
28304;SDS011;15569;42.652;23.040;2022-11-15T05:13:36;55.88;;;18.92;;
28304;SDS011;15569;42.652;23.040;2022-11-15T05:16:01;51.72;;;18.60;;
28304;SDS011;15569;42.652;23.040;2022-11-15T05:18:26;50.05;;;19.95;;
28304;SDS011;15569;42.652;23.040;2022-11-15T05:20:52;56.15;;;20.13;;
28304;SDS011;15569;42.652;23.040;2022-11-15T05:23:17;56.17;;;21.20;;
28304;SDS011;15569;42.652;23.040;2022-11-15T05:25:43;62.60;;;24.35;;
28304;SDS011;15569;42.652;23.040;2022-11-15T05:59:34;85.60;;;28.98;;
28304;SDS011;15569;42.652;23.040;2022-11-15T06:02:00;66.38;;;29.50;;
28304;SDS011;15569;42.652;23.040;2022-11-15T06:04:26;65.82;;;28.75;;
28304;SDS011;15569;42.652;23.040;2022-11-15T06:06:52;76.38;;;33.10;;
28304;SDS011;15569;42.652;23.040;2022-11-15T06:09:17;90.25;;;39.10;;
28304;SDS011;15569;42.652;23.040;2022-11-15T06:11:42;86.88;;;37.35;;
28304;SDS011;15569;42.652;23.040;2022-11-15T06:14:08;83.95;;;32.88;;
28304;SDS011;15569;42.652;23.040;2022-11-15T06:16:33;72.25;;;29.52;;
28304;SDS011;15569;42.652;23.040;2022-11-15T06:18:59;78.55;;;31.40;;
28304;SDS011;15569;42.652;23.040;2022-11-15T06:21:24;106.30;;;37.88;;
28304;SDS011;15569;42.652;23.040;2022-11-15T06:23:52;177.65;;;54.92;;
28304;SDS011;15569;42.652;23.040;2022-11-15T06:26:18;244.25;;;76.65;;
28304;SDS011;15569;42.652;23.040;2022-11-15T06:28:44;221.90;;;74.25;;
28304;SDS011;15569;42.652;23.040;2022-11-15T06:31:10;141.73;;;51.03;;
28304;SDS011;15569;42.652;23.040;2022-11-15T06:33:36;92.97;;;38.17;;
28304;SDS011;15569;42.652;23.040;2022-11-15T06:36:02;82.53;;;32.47;;
28304;SDS011;15569;42.652;23.040;2022-11-15T06:38:29;71.63;;;29.50;;
28304;SDS011;15569;42.652;23.040;2022-11-15T06:40:55;76.40;;;28.67;;
28304;SDS011;15569;42.652;23.040;2022-11-15T06:43:26;68.10;;;29.65;;
28304;SDS011;15569;42.652;23.040;2022-11-15T06:45:52;63.05;;;25.80;;
28304;SDS011;15569;42.652;23.040;2022-11-15T06:48:17;61.15;;;25.95;;
28304;SDS011;15569;42.652;23.040;2022-11-15T06:50:42;71.22;;;27.50;;
28304;SDS011;15569;42.652;23.040;2022-11-15T06:53:14;75.60;;;26.58;;
28304;SDS011;15569;42.652;23.040;2022-11-15T06:55:40;115.28;;;35.65;;
28304;SDS011;15569;42.652;23.040;2022-11-15T06:58:05;79.53;;;30.67;;
28304;SDS011;15569;42.652;23.040;2022-11-15T07:00:31;97.28;;;33.60;;
28304;SDS011;15569;42.652;23.040;2022-11-15T07:02:59;71.70;;;26.30;;
28304;SDS011;15569;42.652;23.040;2022-11-15T07:05:25;62.58;;;23.17;;
28304;SDS011;15569;42.652;23.040;2022-11-15T07:07:50;64.88;;;24.30;;
28304;SDS011;15569;42.652;23.040;2022-11-15T07:10:17;92.22;;;28.48;;
28304;SDS011;15569;42.652;23.040;2022-11-15T07:12:45;61.42;;;25.58;;
28304;SDS011;15569;42.652;23.040;2022-11-15T07:15:12;61.67;;;22.75;;
28304;SDS011;15569;42.652;23.040;2022-11-15T07:17:37;67.10;;;24.00;;
28304;SDS011;15569;42.652;23.040;2022-11-15T07:20:03;72.97;;;22.60;;
28304;SDS011;15569;42.652;23.040;2022-11-15T07:22:28;57.63;;;22.38;;
28304;SDS011;15569;42.652;23.040;2022-11-15T07:24:54;66.90;;;21.42;;
28304;SDS011;15569;42.652;23.040;2022-11-15T07:27:19;61.05;;;23.30;;
28304;SDS011;15569;42.652;23.040;2022-11-15T07:29:44;63.50;;;22.23;;
28304;SDS011;15569;42.652;23.040;2022-11-15T07:32:10;59.08;;;22.23;;
28304;SDS011;15569;42.652;23.040;2022-11-15T07:34:35;69.38;;;25.25;;
28304;SDS011;15569;42.652;23.040;2022-11-15T07:37:01;65.28;;;26.60;;
28304;SDS011;15569;42.652;23.040;2022-11-15T07:39:26;55.05;;;22.92;;
28304;SDS011;15569;42.652;23.040;2022-11-15T07:41:51;61.25;;;24.98;;
28304;SDS011;15569;42.652;23.040;2022-11-15T07:44:37;48.72;;;21.60;;
28304;SDS011;15569;42.652;23.040;2022-11-15T07:47:02;64.25;;;24.23;;
28304;SDS011;15569;42.652;23.040;2022-11-15T07:49:28;58.30;;;23.88;;
28304;SDS011;15569;42.652;23.040;2022-11-15T07:51:53;54.55;;;22.25;;
28304;SDS011;15569;42.652;23.040;2022-11-15T07:54:18;45.53;;;19.95;;
28304;SDS011;15569;42.652;23.040;2022-11-15T07:56:44;45.83;;;21.52;;
28304;SDS011;15569;42.652;23.040;2022-11-15T07:59:09;91.28;;;39.25;;
28304;SDS011;15569;42.652;23.040;2022-11-15T08:01:34;54.78;;;36.13;;
28304;SDS011;15569;42.652;23.040;2022-11-15T08:04:00;59.60;;;36.03;;
28304;SDS011;15569;42.652;23.040;2022-11-15T08:06:25;52.55;;;25.55;;
28304;SDS011;15569;42.652;23.040;2022-11-15T08:08:51;53.13;;;30.05;;
28304;SDS011;15569;42.652;23.040;2022-11-15T08:11:16;50.85;;;32.65;;
28304;SDS011;15569;42.652;23.040;2022-11-15T08:13:41;50.35;;;32.08;;
28304;SDS011;15569;42.652;23.040;2022-11-15T08:16:07;79.55;;;42.92;;
28304;SDS011;15569;42.652;23.040;2022-11-15T08:18:34;87.55;;;44.08;;
28304;SDS011;15569;42.652;23.040;2022-11-15T08:20:59;54.92;;;31.73;;
28304;SDS011;15569;42.652;23.040;2022-11-15T08:23:26;52.75;;;24.35;;
28304;SDS011;15569;42.652;23.040;2022-11-15T08:25:51;64.50;;;33.33;;
28304;SDS011;15569;42.652;23.040;2022-11-15T08:28:17;51.08;;;29.50;;
28304;SDS011;15569;42.652;23.040;2022-11-15T08:30:42;50.58;;;31.75;;
28304;SDS011;15569;42.652;23.040;2022-11-15T08:33:12;82.03;;;34.30;;
28304;SDS011;15569;42.652;23.040;2022-11-15T08:35:39;42.75;;;21.77;;
28304;SDS011;15569;42.652;23.040;2022-11-15T08:38:06;141.77;;;61.85;;
28304;SDS011;15569;42.652;23.040;2022-11-15T08:40:31;87.50;;;42.92;;
28304;SDS011;15569;42.652;23.040;2022-11-15T08:45:33;51.53;;;29.65;;
28304;SDS011;15569;42.652;23.040;2022-11-15T08:48:02;46.20;;;24.88;;
28304;SDS011;15569;42.652;23.040;2022-11-15T08:50:28;57.65;;;22.80;;
28304;SDS011;15569;42.652;23.040;2022-11-15T08:52:54;40.25;;;21.55;;
28304;SDS011;15569;42.652;23.040;2022-11-15T08:55:19;34.22;;;16.90;;
28304;SDS011;15569;42.652;23.040;2022-11-15T08:57:44;38.15;;;19.17;;
28304;SDS011;15569;42.652;23.040;2022-11-15T09:00:10;58.00;;;29.50;;
28304;SDS011;15569;42.652;23.040;2022-11-15T09:02:40;48.25;;;22.05;;
28304;SDS011;15569;42.652;23.040;2022-11-15T09:05:06;47.30;;;34.85;;
28304;SDS011;15569;42.652;23.040;2022-11-15T09:07:31;59.10;;;39.85;;
28304;SDS011;15569;42.652;23.040;2022-11-15T09:09:57;63.08;;;36.40;;
28304;SDS011;15569;42.652;23.040;2022-11-15T09:12:23;103.60;;;45.08;;
28304;SDS011;15569;42.652;23.040;2022-11-15T09:14:49;104.30;;;55.45;;
28304;SDS011;15569;42.652;23.040;2022-11-15T09:17:14;51.75;;;32.95;;
28304;SDS011;15569;42.652;23.040;2022-11-15T09:19:40;53.58;;;33.65;;
28304;SDS011;15569;42.652;23.040;2022-11-15T09:22:06;50.63;;;35.90;;
28304;SDS011;15569;42.652;23.040;2022-11-15T09:24:32;59.58;;;31.65;;
28304;SDS011;15569;42.652;23.040;2022-11-15T09:26:58;37.67;;;19.77;;
28304;SDS011;15569;42.652;23.040;2022-11-15T09:29:23;30.80;;;14.73;;
28304;SDS011;15569;42.652;23.040;2022-11-15T09:31:51;37.15;;;18.95;;
28304;SDS011;15569;42.652;23.040;2022-11-15T09:34:17;48.85;;;33.42;;
28304;SDS011;15569;42.652;23.040;2022-11-15T09:36:42;46.63;;;26.88;;
28304;SDS011;15569;42.652;23.040;2022-11-15T09:39:07;51.72;;;32.65;;
28304;SDS011;15569;42.652;23.040;2022-11-15T09:49:51;43.78;;;27.55;;
28304;SDS011;15569;42.652;23.040;2022-11-15T09:52:22;36.58;;;18.35;;
28304;SDS011;15569;42.652;23.040;2022-11-15T09:54:48;32.53;;;16.08;;
28304;SDS011;15569;42.652;23.040;2022-11-15T09:57:16;24.75;;;14.63;;
28304;SDS011;15569;42.652;23.040;2022-11-15T10:05:20;30.63;;;15.13;;
28304;SDS011;15569;42.652;23.040;2022-11-15T10:07:50;32.70;;;11.95;;
28304;SDS011;15569;42.652;23.040;2022-11-15T10:12:47;24.33;;;16.13;;
28304;SDS011;15569;42.652;23.040;2022-11-15T10:15:16;32.42;;;16.80;;
28304;SDS011;15569;42.652;23.040;2022-11-15T10:20:26;17.65;;;8.70;;
28304;SDS011;15569;42.652;23.040;2022-11-15T10:22:58;21.67;;;10.45;;
28304;SDS011;15569;42.652;23.040;2022-11-15T10:25:32;26.80;;;11.45;;
28304;SDS011;15569;42.652;23.040;2022-11-15T10:27:59;19.40;;;10.13;;
28304;SDS011;15569;42.652;23.040;2022-11-15T10:30:33;23.50;;;9.63;;
28304;SDS011;15569;42.652;23.040;2022-11-15T10:34:05;25.25;;;11.45;;
28304;SDS011;15569;42.652;23.040;2022-11-15T10:36:16;27.52;;;13.20;;
28304;SDS011;15569;42.652;23.040;2022-11-15T10:41:18;21.55;;;11.57;;
28304;SDS011;15569;42.652;23.040;2022-11-15T10:43:46;23.92;;;12.13;;
28304;SDS011;15569;42.652;23.040;2022-11-15T10:46:33;29.15;;;12.60;;
28304;SDS011;15569;42.652;23.040;2022-11-15T10:51:57;27.90;;;12.15;;
28304;SDS011;15569;42.652;23.040;2022-11-15T10:56:51;18.58;;;10.23;;
28304;SDS011;15569;42.652;23.040;2022-11-15T10:59:37;24.70;;;10.85;;
28304;SDS011;15569;42.652;23.040;2022-11-15T11:02:22;21.55;;;11.05;;
28304;SDS011;15569;42.652;23.040;2022-11-15T11:05:03;20.85;;;10.57;;
28304;SDS011;15569;42.652;23.040;2022-11-15T11:07:32;19.55;;;10.70;;
28304;SDS011;15569;42.652;23.040;2022-11-15T11:10:32;27.02;;;9.88;;
28304;SDS011;15569;42.652;23.040;2022-11-15T11:12:51;20.83;;;9.73;;
28304;SDS011;15569;42.652;23.040;2022-11-15T11:15:16;19.30;;;9.65;;
28304;SDS011;15569;42.652;23.040;2022-11-15T11:20:25;19.83;;;9.57;;
28304;SDS011;15569;42.652;23.040;2022-11-15T11:34:35;17.80;;;9.10;;
28304;SDS011;15569;42.652;23.040;2022-11-15T11:50:33;14.73;;;8.18;;
28304;SDS011;15569;42.652;23.040;2022-11-15T11:53:12;17.45;;;8.25;;
28304;SDS011;15569;42.652;23.040;2022-11-15T11:55:43;14.88;;;7.68;;
28304;SDS011;15569;42.652;23.040;2022-11-15T11:58:21;25.55;;;12.93;;
28304;SDS011;15569;42.652;23.040;2022-11-15T12:00:57;16.92;;;7.00;;
28304;SDS011;15569;42.652;23.040;2022-11-15T12:17:11;11.80;;;7.07;;
28304;SDS011;15569;42.652;23.040;2022-11-15T12:19:38;9.50;;;6.45;;
28304;SDS011;15569;42.652;23.040;2022-11-15T12:22:06;12.13;;;7.53;;
28304;SDS011;15569;42.652;23.040;2022-11-15T12:24:58;14.52;;;7.28;;
28304;SDS011;15569;42.652;23.040;2022-11-15T12:29:56;11.77;;;6.78;;
28304;SDS011;15569;42.652;23.040;2022-11-15T12:32:33;15.88;;;8.05;;
28304;SDS011;15569;42.652;23.040;2022-11-15T12:35:02;15.07;;;10.13;;
28304;SDS011;15569;42.652;23.040;2022-11-15T12:43:01;13.45;;;7.93;;
28304;SDS011;15569;42.652;23.040;2022-11-15T12:45:33;22.52;;;15.00;;
28304;SDS011;15569;42.652;23.040;2022-11-15T12:50:59;16.60;;;9.10;;
28304;SDS011;15569;42.652;23.040;2022-11-15T12:58:53;11.85;;;6.55;;
28304;SDS011;15569;42.652;23.040;2022-11-15T13:04:13;17.60;;;7.13;;
28304;SDS011;15569;42.652;23.040;2022-11-15T13:06:47;20.85;;;7.85;;
28304;SDS011;15569;42.652;23.040;2022-11-15T13:12:02;25.63;;;19.25;;
28304;SDS011;15569;42.652;23.040;2022-11-15T13:17:24;17.73;;;10.73;;
28304;SDS011;15569;42.652;23.040;2022-11-15T13:19:59;14.70;;;8.40;;
28304;SDS011;15569;42.652;23.040;2022-11-15T13:22:32;12.95;;;8.15;;
28304;SDS011;15569;42.652;23.040;2022-11-15T13:25:18;8.88;;;6.43;;
28304;SDS011;15569;42.652;23.040;2022-11-15T13:27:53;12.30;;;7.57;;
28304;SDS011;15569;42.652;23.040;2022-11-15T13:30:24;15.32;;;8.05;;
28304;SDS011;15569;42.652;23.040;2022-11-15T13:32:50;18.35;;;8.18;;
28304;SDS011;15569;42.652;23.040;2022-11-15T13:35:26;12.82;;;7.03;;
28304;SDS011;15569;42.652;23.040;2022-11-15T13:37:54;13.68;;;6.28;;
28304;SDS011;15569;42.652;23.040;2022-11-15T13:40:28;7.57;;;6.07;;
28304;SDS011;15569;42.652;23.040;2022-11-15T13:42:59;11.80;;;7.00;;
28304;SDS011;15569;42.652;23.040;2022-11-15T13:45:38;13.95;;;7.57;;
28304;SDS011;15569;42.652;23.040;2022-11-15T13:48:04;14.48;;;7.38;;
28304;SDS011;15569;42.652;23.040;2022-11-15T13:50:32;11.50;;;7.63;;
28304;SDS011;15569;42.652;23.040;2022-11-15T13:53:02;8.95;;;6.18;;
28304;SDS011;15569;42.652;23.040;2022-11-15T13:55:29;11.05;;;6.03;;
28304;SDS011;15569;42.652;23.040;2022-11-15T13:57:58;11.73;;;6.47;;
28304;SDS011;15569;42.652;23.040;2022-11-15T14:00:40;13.35;;;6.88;;
28304;SDS011;15569;42.652;23.040;2022-11-15T14:08:29;10.20;;;6.00;;
28304;SDS011;15569;42.652;23.040;2022-11-15T14:13:41;8.88;;;5.45;;
28304;SDS011;15569;42.652;23.040;2022-11-15T14:16:14;16.15;;;5.80;;
28304;SDS011;15569;42.652;23.040;2022-11-15T14:18:47;9.38;;;5.78;;
28304;SDS011;15569;42.652;23.040;2022-11-15T14:21:14;13.02;;;6.28;;
28304;SDS011;15569;42.652;23.040;2022-11-15T14:23:40;10.68;;;6.68;;
28304;SDS011;15569;42.652;23.040;2022-11-15T14:26:05;9.85;;;6.05;;
28304;SDS011;15569;42.652;23.040;2022-11-15T14:28:32;9.57;;;5.68;;
28304;SDS011;15569;42.652;23.040;2022-11-15T14:31:04;11.07;;;5.78;;
28304;SDS011;15569;42.652;23.040;2022-11-15T14:33:36;10.48;;;6.30;;
28304;SDS011;15569;42.652;23.040;2022-11-15T14:36:12;11.10;;;6.07;;
28304;SDS011;15569;42.652;23.040;2022-11-15T14:38:38;9.55;;;6.25;;
28304;SDS011;15569;42.652;23.040;2022-11-15T14:41:03;22.00;;;10.45;;
28304;SDS011;15569;42.652;23.040;2022-11-15T14:43:29;13.38;;;8.23;;
28304;SDS011;15569;42.652;23.040;2022-11-15T14:45:54;20.85;;;9.52;;
28304;SDS011;15569;42.652;23.040;2022-11-15T14:48:20;29.95;;;13.60;;
28304;SDS011;15569;42.652;23.040;2022-11-15T14:50:47;23.88;;;11.98;;
28304;SDS011;15569;42.652;23.040;2022-11-15T14:53:16;33.22;;;19.88;;
28304;SDS011;15569;42.652;23.040;2022-11-15T14:55:42;22.60;;;11.85;;
28304;SDS011;15569;42.652;23.040;2022-11-15T14:58:08;23.08;;;10.57;;
28304;SDS011;15569;42.652;23.040;2022-11-15T15:00:35;123.45;;;57.85;;
28304;SDS011;15569;42.652;23.040;2022-11-15T15:03:02;70.63;;;41.00;;
28304;SDS011;15569;42.652;23.040;2022-11-15T15:05:38;36.08;;;17.73;;
28304;SDS011;15569;42.652;23.040;2022-11-15T15:08:06;30.38;;;19.23;;
28304;SDS011;15569;42.652;23.040;2022-11-15T15:10:37;22.52;;;14.48;;
28304;SDS011;15569;42.652;23.040;2022-11-15T15:13:06;44.00;;;25.40;;
28304;SDS011;15569;42.652;23.040;2022-11-15T15:15:38;45.08;;;21.38;;
28304;SDS011;15569;42.652;23.040;2022-11-15T15:18:04;72.95;;;26.80;;
28304;SDS011;15569;42.652;23.040;2022-11-15T15:20:30;55.65;;;27.80;;
28304;SDS011;15569;42.652;23.040;2022-11-15T15:22:57;65.55;;;29.30;;
28304;SDS011;15569;42.652;23.040;2022-11-15T15:25:27;108.63;;;48.03;;
28304;SDS011;15569;42.652;23.040;2022-11-15T15:27:54;85.30;;;41.17;;
28304;SDS011;15569;42.652;23.040;2022-11-15T15:30:20;71.35;;;36.40;;
28304;SDS011;15569;42.652;23.040;2022-11-15T15:32:46;65.25;;;30.80;;
28304;SDS011;15569;42.652;23.040;2022-11-15T15:35:13;77.22;;;34.65;;
28304;SDS011;15569;42.652;23.040;2022-11-15T15:37:39;73.57;;;34.47;;
28304;SDS011;15569;42.652;23.040;2022-11-15T15:42:58;89.25;;;41.22;;
28304;SDS011;15569;42.652;23.040;2022-11-15T15:45:24;73.28;;;38.72;;
28304;SDS011;15569;42.652;23.040;2022-11-15T15:47:51;356.45;;;123.65;;
28304;SDS011;15569;42.652;23.040;2022-11-15T15:50:27;182.43;;;69.20;;
28304;SDS011;15569;42.652;23.040;2022-11-15T15:52:57;174.73;;;67.93;;
28304;SDS011;15569;42.652;23.040;2022-11-15T15:55:24;164.88;;;60.08;;
28304;SDS011;15569;42.652;23.040;2022-11-15T15:57:50;96.78;;;42.45;;
28304;SDS011;15569;42.652;23.040;2022-11-15T16:00:17;254.88;;;94.82;;
28304;SDS011;15569;42.652;23.040;2022-11-15T16:02:43;273.92;;;106.25;;
28304;SDS011;15569;42.652;23.040;2022-11-15T16:05:08;100.38;;;46.17;;
28304;SDS011;15569;42.652;23.040;2022-11-15T16:07:35;249.90;;;79.15;;
28304;SDS011;15569;42.652;23.040;2022-11-15T16:10:01;214.32;;;78.05;;
28304;SDS011;15569;42.652;23.040;2022-11-15T16:12:38;114.20;;;55.17;;
28304;SDS011;15569;42.652;23.040;2022-11-15T16:15:04;66.97;;;34.50;;
28304;SDS011;15569;42.652;23.040;2022-11-15T16:17:31;90.13;;;47.55;;
28304;SDS011;15569;42.652;23.040;2022-11-15T16:20:00;78.25;;;38.88;;
28304;SDS011;15569;42.652;23.040;2022-11-15T16:22:25;94.15;;;44.90;;
28304;SDS011;15569;42.652;23.040;2022-11-15T16:24:51;63.88;;;31.98;;
28304;SDS011;15569;42.652;23.040;2022-11-15T16:27:17;70.75;;;32.88;;
28304;SDS011;15569;42.652;23.040;2022-11-15T16:29:44;203.80;;;55.85;;
28304;SDS011;15569;42.652;23.040;2022-11-15T16:32:10;160.10;;;43.05;;
28304;SDS011;15569;42.652;23.040;2022-11-15T16:34:36;150.23;;;53.80;;
28304;SDS011;15569;42.652;23.040;2022-11-15T16:37:02;232.35;;;64.20;;
28304;SDS011;15569;42.652;23.040;2022-11-15T16:39:27;79.97;;;40.22;;
28304;SDS011;15569;42.652;23.040;2022-11-15T16:41:55;173.30;;;66.60;;
28304;SDS011;15569;42.652;23.040;2022-11-15T16:44:21;84.15;;;43.22;;
28304;SDS011;15569;42.652;23.040;2022-11-15T16:46:48;166.15;;;60.35;;
28304;SDS011;15569;42.652;23.040;2022-11-15T16:49:16;113.88;;;47.72;;
28304;SDS011;15569;42.652;23.040;2022-11-15T16:51:44;97.00;;;44.00;;
28304;SDS011;15569;42.652;23.040;2022-11-15T16:54:10;74.22;;;37.28;;
28304;SDS011;15569;42.652;23.040;2022-11-15T16:56:36;118.07;;;47.90;;
28304;SDS011;15569;42.652;23.040;2022-11-15T16:59:02;75.43;;;36.40;;
28304;SDS011;15569;42.652;23.040;2022-11-15T17:01:29;52.35;;;28.85;;
28304;SDS011;15569;42.652;23.040;2022-11-15T17:03:56;25.73;;;12.30;;
28304;SDS011;15569;42.652;23.040;2022-11-15T17:06:23;25.40;;;15.15;;
28304;SDS011;15569;42.652;23.040;2022-11-15T17:08:50;36.35;;;21.75;;
28304;SDS011;15569;42.652;23.040;2022-11-15T17:11:17;30.92;;;17.38;;
28304;SDS011;15569;42.652;23.040;2022-11-15T17:13:45;36.17;;;18.25;;
28304;SDS011;15569;42.652;23.040;2022-11-15T17:16:14;35.05;;;25.10;;
28304;SDS011;15569;42.652;23.040;2022-11-15T17:18:42;44.67;;;28.35;;
28304;SDS011;15569;42.652;23.040;2022-11-15T17:21:13;38.13;;;26.38;;
28304;SDS011;15569;42.652;23.040;2022-11-15T17:23:41;41.58;;;26.35;;
28304;SDS011;15569;42.652;23.040;2022-11-15T17:26:07;41.72;;;21.38;;
28304;SDS011;15569;42.652;23.040;2022-11-15T17:28:35;56.35;;;28.95;;
28304;SDS011;15569;42.652;23.040;2022-11-15T17:31:01;239.90;;;74.18;;
28304;SDS011;15569;42.652;23.040;2022-11-15T17:33:33;205.65;;;78.45;;